Aeroporto :
LOGIN :

Iscrizione | Disclaimer

   EN    FR    IT 

 










Sommario :    VFR   VFR Marginale   IFR   IFR Intensivo   IFR Molto Intensivo
Visibilità : 
Base nubi : 
>= 8 km
>= 3000ft
5 / 8 km
1000 / 3000 ft
1500m / 5 km
500 / 1000 ft
800 / 1500m
200 / 500 ft
< 800m
< 200 ft
Simboli :   Temporali  Nebbia  Neve Forte  Precipitazioni Forti  Vento > 20 kt
SIGMETs :   Varie  Temporali  Ghiacco  Turbolenza  Onda orograficha  Ceneri Vulcaniche






- Altitudine del aeroporto : 405 ft
- Codice IATA : ODH


EGVO - RAF Odiham

ULTIMO METAR :
  • 281150Z 29005KT 9999 SCT015 06/03 Q1011 TEMPO FEW018 RMK WHT TEMPO BLU

METARs OBSOLETI :
  • 281120Z 32005KT 9999 SCT014 05/02 Q1011 TEMPO SCT015 RMK GRN TEMPO WHT
  • 281050Z 32006KT 9999 FEW012 BKN025 05/03 Q1011 TEMPO SCT015 RMK BLU TEMPO WHT
  • 281020Z 32005KT 9999 SCT009 05/04 Q1011 TEMPO FEW009 RMK GRN TEMPO BLU
  • 280950Z 34005KT 9999 SCT008 05/03 Q1011 TEMPO FEW008 RMK GRN TEMPO BLU
  • 280920Z 34005KT 9999 FEW008 04/03 Q1010 NOSIG RMK BLU BLU
  • 280850Z 32005KT 9999 FEW025 04/04 Q1010 NOSIG RMK BLU BLU
  • 280820Z 30003KT 9999 FEW025 04/03 Q1010 NOSIG RMK BLU BLU
  • 280750Z 33006KT 9999 FEW009 04/03 Q1010 NOSIG RMK BLU BLU
  • 280720Z AUTO 33006KT 9999 FEW009/// 04/03 Q1009

TAF AMD TAF EGVO
Valido dal 28 a 11 ore il 28 a 21 ore UTC


281138Z 2811/2821 31008KT 9999 FEW015
PROB30
TEMPO 2811/2812 SCT012
PROB30
TEMPO 2812/2815 SCT020



MetMap, La meteo Aeronautica in un colpo d'occhio ! - Copyright ORBIFLY Dicembre 2007 - Disclaimer

ORBIFLY MET'MAP TEAM :

Programmazione e sviluppo : Alexandra Zaïnal
Concezione : Baudouin d'Aumeries
Supporto tecnico e logistico : Manuel Goepfert
Aiuto : Marc-Olivier Méhu
Aiuto per la traduzione : Arnaldo La Scala




FONTI E CREDITI :

   NOAA